sensor_id;sensor_type;location;lat;lon;timestamp;temperature;humidity
354;DHT22;165;53.592;10.044;2023-01-23T00:01:05;3.90;99.90
354;DHT22;165;53.592;10.044;2023-01-23T00:03:31;3.90;99.90
354;DHT22;165;53.592;10.044;2023-01-23T00:06:02;3.90;99.90
354;DHT22;165;53.592;10.044;2023-01-23T00:08:28;3.90;99.90
354;DHT22;165;53.592;10.044;2023-01-23T00:10:53;4.00;99.90
354;DHT22;165;53.592;10.044;2023-01-23T00:13:19;4.00;99.90
354;DHT22;165;53.592;10.044;2023-01-23T00:15:45;3.90;99.90
354;DHT22;165;53.592;10.044;2023-01-23T00:18:10;3.90;99.90
354;DHT22;165;53.592;10.044;2023-01-23T00:20:37;3.90;99.90
354;DHT22;165;53.592;10.044;2023-01-23T00:23:02;3.90;99.90
354;DHT22;165;53.592;10.044;2023-01-23T00:25:28;4.00;99.90
354;DHT22;165;53.592;10.044;2023-01-23T00:27:53;4.00;99.90
354;DHT22;165;53.592;10.044;2023-01-23T00:30:19;4.00;99.90
354;DHT22;165;53.592;10.044;2023-01-23T00:32:44;4.00;99.90
354;DHT22;165;53.592;10.044;2023-01-23T00:35:10;4.00;99.90
354;DHT22;165;53.592;10.044;2023-01-23T00:37:35;4.00;99.90
354;DHT22;165;53.592;10.044;2023-01-23T00:40:01;4.00;99.90
354;DHT22;165;53.592;10.044;2023-01-23T00:42:26;4.10;99.90
354;DHT22;165;53.592;10.044;2023-01-23T00:44:52;4.10;99.90
354;DHT22;165;53.592;10.044;2023-01-23T00:47:17;4.00;99.90
354;DHT22;165;53.592;10.044;2023-01-23T00:49:43;4.10;99.90
354;DHT22;165;53.592;10.044;2023-01-23T00:52:08;4.10;99.90
354;DHT22;165;53.592;10.044;2023-01-23T00:54:34;4.10;99.90
354;DHT22;165;53.592;10.044;2023-01-23T00:56:59;4.10;99.90
354;DHT22;165;53.592;10.044;2023-01-23T00:59:25;4.10;99.90
354;DHT22;165;53.592;10.044;2023-01-23T01:01:50;4.10;99.90
354;DHT22;165;53.592;10.044;2023-01-23T01:04:16;4.10;99.90
354;DHT22;165;53.592;10.044;2023-01-23T01:06:41;4.10;99.90
354;DHT22;165;53.592;10.044;2023-01-23T01:09:06;4.10;99.90
354;DHT22;165;53.592;10.044;2023-01-23T01:11:32;4.10;99.90
354;DHT22;165;53.592;10.044;2023-01-23T01:13:58;4.00;99.90
354;DHT22;165;53.592;10.044;2023-01-23T01:16:23;4.00;99.90
354;DHT22;165;53.592;10.044;2023-01-23T01:18:49;4.10;99.90
354;DHT22;165;53.592;10.044;2023-01-23T01:21:15;4.10;99.90
354;DHT22;165;53.592;10.044;2023-01-23T01:23:41;4.10;99.90
354;DHT22;165;53.592;10.044;2023-01-23T01:26:07;4.00;99.90
354;DHT22;165;53.592;10.044;2023-01-23T01:28:34;4.00;99.90
354;DHT22;165;53.592;10.044;2023-01-23T01:31:06;4.00;99.90
354;DHT22;165;53.592;10.044;2023-01-23T01:33:32;4.00;99.90
354;DHT22;165;53.592;10.044;2023-01-23T01:35:57;3.90;99.90
354;DHT22;165;53.592;10.044;2023-01-23T01:38:23;3.90;99.90
354;DHT22;165;53.592;10.044;2023-01-23T01:40:49;3.90;99.90
354;DHT22;165;53.592;10.044;2023-01-23T01:43:18;3.80;99.90
354;DHT22;165;53.592;10.044;2023-01-23T01:46:15;3.80;99.90
354;DHT22;165;53.592;10.044;2023-01-23T01:48:49;3.80;99.90
354;DHT22;165;53.592;10.044;2023-01-23T01:51:23;3.80;99.90
354;DHT22;165;53.592;10.044;2023-01-23T01:53:55;3.80;99.90
354;DHT22;165;53.592;10.044;2023-01-23T01:56:24;3.80;99.90
354;DHT22;165;53.592;10.044;2023-01-23T01:58:52;3.80;99.90
354;DHT22;165;53.592;10.044;2023-01-23T02:01:18;3.80;99.90
354;DHT22;165;53.592;10.044;2023-01-23T02:03:44;3.80;99.90
354;DHT22;165;53.592;10.044;2023-01-23T02:06:10;3.80;99.90
354;DHT22;165;53.592;10.044;2023-01-23T02:08:50;3.80;99.90
354;DHT22;165;53.592;10.044;2023-01-23T02:11:17;3.80;99.90
354;DHT22;165;53.592;10.044;2023-01-23T02:13:43;3.80;99.90
354;DHT22;165;53.592;10.044;2023-01-23T02:16:12;3.80;99.90
354;DHT22;165;53.592;10.044;2023-01-23T02:18:41;3.70;99.90
354;DHT22;165;53.592;10.044;2023-01-23T02:21:08;3.70;99.90
354;DHT22;165;53.592;10.044;2023-01-23T02:26:41;3.80;99.90
354;DHT22;165;53.592;10.044;2023-01-23T02:29:07;3.80;99.90
354;DHT22;165;53.592;10.044;2023-01-23T02:31:32;3.80;99.90
354;DHT22;165;53.592;10.044;2023-01-23T02:33:58;3.80;99.90
354;DHT22;165;53.592;10.044;2023-01-23T02:36:30;3.70;99.90
354;DHT22;165;53.592;10.044;2023-01-23T02:41:30;3.60;99.90
354;DHT22;165;53.592;10.044;2023-01-23T02:43:58;3.60;99.90
354;DHT22;165;53.592;10.044;2023-01-23T02:46:25;3.60;99.90
354;DHT22;165;53.592;10.044;2023-01-23T02:48:50;3.60;99.90
354;DHT22;165;53.592;10.044;2023-01-23T02:51:16;3.50;99.90
354;DHT22;165;53.592;10.044;2023-01-23T02:53:42;3.50;99.90
354;DHT22;165;53.592;10.044;2023-01-23T02:56:07;3.60;99.90
354;DHT22;165;53.592;10.044;2023-01-23T02:58:33;3.50;99.90
354;DHT22;165;53.592;10.044;2023-01-23T03:00:58;3.40;99.90
354;DHT22;165;53.592;10.044;2023-01-23T03:03:24;3.30;99.90
354;DHT22;165;53.592;10.044;2023-01-23T03:05:49;3.30;99.90
354;DHT22;165;53.592;10.044;2023-01-23T03:08:15;3.30;99.90
354;DHT22;165;53.592;10.044;2023-01-23T03:10:41;3.20;99.90
354;DHT22;165;53.592;10.044;2023-01-23T03:13:06;3.20;99.90
354;DHT22;165;53.592;10.044;2023-01-23T03:15:33;3.20;99.90
354;DHT22;165;53.592;10.044;2023-01-23T03:17:59;3.20;99.90
354;DHT22;165;53.592;10.044;2023-01-23T03:20:24;3.20;99.90
354;DHT22;165;53.592;10.044;2023-01-23T03:22:50;3.20;99.90
354;DHT22;165;53.592;10.044;2023-01-23T03:25:16;3.10;99.90
354;DHT22;165;53.592;10.044;2023-01-23T03:27:41;3.20;99.90
354;DHT22;165;53.592;10.044;2023-01-23T03:30:09;3.20;99.90
354;DHT22;165;53.592;10.044;2023-01-23T03:32:34;3.20;99.90
354;DHT22;165;53.592;10.044;2023-01-23T03:35:00;3.20;99.90
354;DHT22;165;53.592;10.044;2023-01-23T03:37:25;3.20;99.90
354;DHT22;165;53.592;10.044;2023-01-23T03:39:51;3.10;99.90
354;DHT22;165;53.592;10.044;2023-01-23T03:42:16;3.10;99.90
354;DHT22;165;53.592;10.044;2023-01-23T03:44:42;3.20;99.90
354;DHT22;165;53.592;10.044;2023-01-23T03:47:07;3.20;99.90
354;DHT22;165;53.592;10.044;2023-01-23T03:49:33;3.20;99.90
354;DHT22;165;53.592;10.044;2023-01-23T03:51:58;3.30;99.90
354;DHT22;165;53.592;10.044;2023-01-23T03:54:24;3.30;99.90
354;DHT22;165;53.592;10.044;2023-01-23T03:56:50;3.30;99.90
354;DHT22;165;53.592;10.044;2023-01-23T03:59:15;3.30;99.90
354;DHT22;165;53.592;10.044;2023-01-23T04:01:41;3.30;99.90
354;DHT22;165;53.592;10.044;2023-01-23T04:04:06;3.40;99.90
354;DHT22;165;53.592;10.044;2023-01-23T04:06:32;3.40;99.90
354;DHT22;165;53.592;10.044;2023-01-23T04:08:58;3.40;99.90
354;DHT22;165;53.592;10.044;2023-01-23T04:11:24;3.40;99.90
354;DHT22;165;53.592;10.044;2023-01-23T04:13:50;3.40;99.90
354;DHT22;165;53.592;10.044;2023-01-23T04:16:15;3.40;99.90
354;DHT22;165;53.592;10.044;2023-01-23T04:18:41;3.40;99.90
354;DHT22;165;53.592;10.044;2023-01-23T04:21:06;3.30;99.90
354;DHT22;165;53.592;10.044;2023-01-23T04:23:32;3.30;99.90
354;DHT22;165;53.592;10.044;2023-01-23T04:25:58;3.40;99.90
354;DHT22;165;53.592;10.044;2023-01-23T04:28:23;3.40;99.90
354;DHT22;165;53.592;10.044;2023-01-23T04:30:50;3.40;99.90
354;DHT22;165;53.592;10.044;2023-01-23T04:33:16;3.40;99.90
354;DHT22;165;53.592;10.044;2023-01-23T04:35:58;3.40;99.90
354;DHT22;165;53.592;10.044;2023-01-23T04:38:26;3.40;99.90
354;DHT22;165;53.592;10.044;2023-01-23T04:40:52;3.40;99.90
354;DHT22;165;53.592;10.044;2023-01-23T04:43:18;3.30;99.90
354;DHT22;165;53.592;10.044;2023-01-23T04:45:43;3.40;99.90
354;DHT22;165;53.592;10.044;2023-01-23T04:48:10;3.40;99.90
354;DHT22;165;53.592;10.044;2023-01-23T04:50:36;3.40;99.90
354;DHT22;165;53.592;10.044;2023-01-23T04:53:02;3.40;99.90
354;DHT22;165;53.592;10.044;2023-01-23T04:55:28;3.40;99.90
354;DHT22;165;53.592;10.044;2023-01-23T04:57:54;3.40;99.90
354;DHT22;165;53.592;10.044;2023-01-23T05:00:19;3.40;99.90
354;DHT22;165;53.592;10.044;2023-01-23T05:02:45;3.40;99.90
354;DHT22;165;53.592;10.044;2023-01-23T05:05:11;3.30;99.90
354;DHT22;165;53.592;10.044;2023-01-23T05:07:37;3.30;99.90
354;DHT22;165;53.592;10.044;2023-01-23T05:10:03;3.40;99.90
354;DHT22;165;53.592;10.044;2023-01-23T05:12:28;3.40;99.90
354;DHT22;165;53.592;10.044;2023-01-23T05:14:54;3.40;99.90
354;DHT22;165;53.592;10.044;2023-01-23T05:17:19;3.40;99.90
354;DHT22;165;53.592;10.044;2023-01-23T05:19:44;3.30;99.90
354;DHT22;165;53.592;10.044;2023-01-23T05:22:10;3.30;99.90
354;DHT22;165;53.592;10.044;2023-01-23T05:24:35;3.40;99.90
354;DHT22;165;53.592;10.044;2023-01-23T05:27:01;3.30;99.90
354;DHT22;165;53.592;10.044;2023-01-23T05:29:27;3.40;99.90
354;DHT22;165;53.592;10.044;2023-01-23T05:31:52;3.30;99.90
354;DHT22;165;53.592;10.044;2023-01-23T05:34:17;3.40;99.90
354;DHT22;165;53.592;10.044;2023-01-23T05:36:43;3.40;99.90
354;DHT22;165;53.592;10.044;2023-01-23T05:39:08;3.30;99.90
354;DHT22;165;53.592;10.044;2023-01-23T05:41:34;3.40;99.90
354;DHT22;165;53.592;10.044;2023-01-23T05:43:59;3.30;99.90
354;DHT22;165;53.592;10.044;2023-01-23T05:46:25;3.40;99.90
354;DHT22;165;53.592;10.044;2023-01-23T05:48:51;3.40;99.90
354;DHT22;165;53.592;10.044;2023-01-23T05:51:17;3.30;99.90
354;DHT22;165;53.592;10.044;2023-01-23T05:53:42;3.30;99.90
354;DHT22;165;53.592;10.044;2023-01-23T05:56:08;3.30;99.90
354;DHT22;165;53.592;10.044;2023-01-23T05:58:34;3.30;99.90
354;DHT22;165;53.592;10.044;2023-01-23T06:01:02;3.30;99.90
354;DHT22;165;53.592;10.044;2023-01-23T06:03:28;3.30;99.90
354;DHT22;165;53.592;10.044;2023-01-23T06:05:53;3.30;99.90
354;DHT22;165;53.592;10.044;2023-01-23T06:08:19;3.30;99.90
354;DHT22;165;53.592;10.044;2023-01-23T06:10:44;3.30;99.90
354;DHT22;165;53.592;10.044;2023-01-23T06:13:10;3.30;99.90
354;DHT22;165;53.592;10.044;2023-01-23T06:15:36;3.30;99.90
354;DHT22;165;53.592;10.044;2023-01-23T06:18:01;3.40;99.90
354;DHT22;165;53.592;10.044;2023-01-23T06:20:27;3.30;99.90
354;DHT22;165;53.592;10.044;2023-01-23T06:22:52;3.30;99.90
354;DHT22;165;53.592;10.044;2023-01-23T06:25:18;3.30;99.90
354;DHT22;165;53.592;10.044;2023-01-23T06:27:43;3.30;99.90
354;DHT22;165;53.592;10.044;2023-01-23T06:30:09;3.30;99.90
354;DHT22;165;53.592;10.044;2023-01-23T06:32:35;3.30;99.90
354;DHT22;165;53.592;10.044;2023-01-23T06:35:00;3.30;99.90
354;DHT22;165;53.592;10.044;2023-01-23T06:37:26;3.30;99.90
354;DHT22;165;53.592;10.044;2023-01-23T06:39:52;3.40;99.90
354;DHT22;165;53.592;10.044;2023-01-23T06:42:17;3.30;99.90
354;DHT22;165;53.592;10.044;2023-01-23T06:44:43;3.40;99.90
354;DHT22;165;53.592;10.044;2023-01-23T06:47:08;3.30;99.90
354;DHT22;165;53.592;10.044;2023-01-23T06:49:33;3.30;99.90
354;DHT22;165;53.592;10.044;2023-01-23T06:51:59;3.30;99.90
354;DHT22;165;53.592;10.044;2023-01-23T06:54:24;3.30;99.90
354;DHT22;165;53.592;10.044;2023-01-23T06:56:50;3.30;99.90
354;DHT22;165;53.592;10.044;2023-01-23T06:59:15;3.40;99.90
354;DHT22;165;53.592;10.044;2023-01-23T07:01:41;3.30;99.90
354;DHT22;165;53.592;10.044;2023-01-23T07:04:06;3.40;99.90
354;DHT22;165;53.592;10.044;2023-01-23T07:06:32;3.40;99.90
354;DHT22;165;53.592;10.044;2023-01-23T07:08:57;3.40;99.90
354;DHT22;165;53.592;10.044;2023-01-23T07:11:23;3.40;99.90
354;DHT22;165;53.592;10.044;2023-01-23T07:13:48;3.40;99.90
354;DHT22;165;53.592;10.044;2023-01-23T07:16:17;3.40;99.90
354;DHT22;165;53.592;10.044;2023-01-23T07:18:45;3.40;99.90
354;DHT22;165;53.592;10.044;2023-01-23T07:21:14;3.40;99.90
354;DHT22;165;53.592;10.044;2023-01-23T07:23:42;3.40;99.90
354;DHT22;165;53.592;10.044;2023-01-23T07:26:09;3.30;99.90
354;DHT22;165;53.592;10.044;2023-01-23T07:28:36;3.40;99.90
354;DHT22;165;53.592;10.044;2023-01-23T07:31:02;3.40;99.90
354;DHT22;165;53.592;10.044;2023-01-23T07:33:27;3.40;99.90
354;DHT22;165;53.592;10.044;2023-01-23T07:35:53;3.40;99.90
354;DHT22;165;53.592;10.044;2023-01-23T07:38:19;3.40;99.90
354;DHT22;165;53.592;10.044;2023-01-23T07:40:45;3.50;99.90
354;DHT22;165;53.592;10.044;2023-01-23T07:43:11;3.50;99.90
354;DHT22;165;53.592;10.044;2023-01-23T07:45:36;3.40;99.90
354;DHT22;165;53.592;10.044;2023-01-23T07:48:02;3.50;99.90
354;DHT22;165;53.592;10.044;2023-01-23T07:50:28;3.50;99.90
354;DHT22;165;53.592;10.044;2023-01-23T07:52:53;3.50;99.90
354;DHT22;165;53.592;10.044;2023-01-23T07:55:21;3.50;99.90
354;DHT22;165;53.592;10.044;2023-01-23T07:57:59;3.50;99.90
354;DHT22;165;53.592;10.044;2023-01-23T08:00:24;3.50;99.90
354;DHT22;165;53.592;10.044;2023-01-23T08:02:53;3.50;99.90
354;DHT22;165;53.592;10.044;2023-01-23T08:05:18;3.50;99.90
354;DHT22;165;53.592;10.044;2023-01-23T08:07:44;3.60;99.90
354;DHT22;165;53.592;10.044;2023-01-23T08:10:10;3.60;99.90
354;DHT22;165;53.592;10.044;2023-01-23T14:52:00;4.90;99.90
354;DHT22;165;53.592;10.044;2023-01-23T14:54:27;4.90;99.90
354;DHT22;165;53.592;10.044;2023-01-23T14:56:53;4.90;99.90
354;DHT22;165;53.592;10.044;2023-01-23T14:59:31;4.80;99.90
354;DHT22;165;53.592;10.044;2023-01-23T15:02:00;4.80;99.90
354;DHT22;165;53.592;10.044;2023-01-23T15:04:27;4.80;99.90
354;DHT22;165;53.592;10.044;2023-01-23T15:06:59;4.80;99.90
354;DHT22;165;53.592;10.044;2023-01-23T15:09:32;4.80;99.90
354;DHT22;165;53.592;10.044;2023-01-23T15:12:06;4.80;99.90
354;DHT22;165;53.592;10.044;2023-01-23T15:14:37;4.90;99.90
354;DHT22;165;53.592;10.044;2023-01-23T15:17:11;4.90;99.90
354;DHT22;165;53.592;10.044;2023-01-23T15:19:40;4.70;99.90
354;DHT22;165;53.592;10.044;2023-01-23T15:22:19;4.70;99.90
354;DHT22;165;53.592;10.044;2023-01-23T15:24:45;4.80;99.90
354;DHT22;165;53.592;10.044;2023-01-23T15:27:31;4.70;99.90
354;DHT22;165;53.592;10.044;2023-01-23T15:32:54;4.70;99.90
354;DHT22;165;53.592;10.044;2023-01-23T15:35:21;4.70;99.90
354;DHT22;165;53.592;10.044;2023-01-23T15:37:47;4.60;99.90
354;DHT22;165;53.592;10.044;2023-01-23T15:40:16;4.60;99.90
354;DHT22;165;53.592;10.044;2023-01-23T15:42:42;4.60;99.90
354;DHT22;165;53.592;10.044;2023-01-23T15:45:24;4.60;99.90
354;DHT22;165;53.592;10.044;2023-01-23T15:47:49;4.60;99.90
354;DHT22;165;53.592;10.044;2023-01-23T15:50:15;4.60;99.90
354;DHT22;165;53.592;10.044;2023-01-23T15:52:44;4.60;99.90
354;DHT22;165;53.592;10.044;2023-01-23T15:55:10;4.50;99.90
354;DHT22;165;53.592;10.044;2023-01-23T15:57:35;4.50;99.90
354;DHT22;165;53.592;10.044;2023-01-23T16:00:14;4.50;99.90
354;DHT22;165;53.592;10.044;2023-01-23T16:02:43;4.50;99.90
354;DHT22;165;53.592;10.044;2023-01-23T16:05:09;4.50;99.90
354;DHT22;165;53.592;10.044;2023-01-23T16:07:45;4.60;99.90
354;DHT22;165;53.592;10.044;2023-01-23T16:10:22;4.50;99.90
354;DHT22;165;53.592;10.044;2023-01-23T16:12:50;4.60;99.90
354;DHT22;165;53.592;10.044;2023-01-23T16:15:44;4.60;99.90
354;DHT22;165;53.592;10.044;2023-01-23T16:18:10;4.50;99.90
354;DHT22;165;53.592;10.044;2023-01-23T16:20:38;4.50;99.90
354;DHT22;165;53.592;10.044;2023-01-23T16:23:29;4.50;99.90
354;DHT22;165;53.592;10.044;2023-01-23T16:29:07;4.40;99.90
354;DHT22;165;53.592;10.044;2023-01-23T16:31:48;4.50;99.90
354;DHT22;165;53.592;10.044;2023-01-23T16:34:15;4.50;99.90
354;DHT22;165;53.592;10.044;2023-01-23T16:37:08;4.50;99.90
354;DHT22;165;53.592;10.044;2023-01-23T16:39:35;4.40;99.90
354;DHT22;165;53.592;10.044;2023-01-23T16:42:01;4.30;99.90
354;DHT22;165;53.592;10.044;2023-01-23T16:44:27;4.40;99.90
354;DHT22;165;53.592;10.044;2023-01-23T16:46:53;4.30;99.90
354;DHT22;165;53.592;10.044;2023-01-23T16:49:19;4.40;99.90
354;DHT22;165;53.592;10.044;2023-01-23T16:51:56;4.50;99.90
354;DHT22;165;53.592;10.044;2023-01-23T16:54:25;4.50;99.90
354;DHT22;165;53.592;10.044;2023-01-23T16:56:53;4.50;99.90
354;DHT22;165;53.592;10.044;2023-01-23T16:59:33;4.40;99.90
354;DHT22;165;53.592;10.044;2023-01-23T17:02:04;4.40;99.90
354;DHT22;165;53.592;10.044;2023-01-23T17:04:30;4.50;99.90
354;DHT22;165;53.592;10.044;2023-01-23T17:06:55;4.50;99.90
354;DHT22;165;53.592;10.044;2023-01-23T17:09:21;4.40;99.90
354;DHT22;165;53.592;10.044;2023-01-23T17:11:52;4.40;99.90
354;DHT22;165;53.592;10.044;2023-01-23T17:14:29;4.40;99.90
354;DHT22;165;53.592;10.044;2023-01-23T17:17:04;4.40;99.90
354;DHT22;165;53.592;10.044;2023-01-23T17:19:31;4.40;99.90
354;DHT22;165;53.592;10.044;2023-01-23T17:22:00;4.40;99.90
354;DHT22;165;53.592;10.044;2023-01-23T17:24:26;4.40;99.90
354;DHT22;165;53.592;10.044;2023-01-23T17:26:51;4.50;99.90
354;DHT22;165;53.592;10.044;2023-01-23T17:29:19;4.50;99.90
354;DHT22;165;53.592;10.044;2023-01-23T17:31:45;4.50;99.90
354;DHT22;165;53.592;10.044;2023-01-23T17:34:21;4.50;99.90
354;DHT22;165;53.592;10.044;2023-01-23T17:36:49;4.50;99.90
354;DHT22;165;53.592;10.044;2023-01-23T17:39:15;4.50;99.90
354;DHT22;165;53.592;10.044;2023-01-23T17:41:40;4.40;99.90
354;DHT22;165;53.592;10.044;2023-01-23T17:44:06;4.50;99.90
354;DHT22;165;53.592;10.044;2023-01-23T17:46:33;4.50;99.90
354;DHT22;165;53.592;10.044;2023-01-23T17:48:59;4.40;99.90
354;DHT22;165;53.592;10.044;2023-01-23T17:51:25;4.40;99.90
354;DHT22;165;53.592;10.044;2023-01-23T17:53:51;4.40;99.90
354;DHT22;165;53.592;10.044;2023-01-23T17:56:17;4.50;99.90
354;DHT22;165;53.592;10.044;2023-01-23T17:58:43;4.50;99.90
354;DHT22;165;53.592;10.044;2023-01-23T18:01:21;4.40;99.90
354;DHT22;165;53.592;10.044;2023-01-23T18:03:48;4.50;99.90
354;DHT22;165;53.592;10.044;2023-01-23T18:06:14;4.40;99.90
354;DHT22;165;53.592;10.044;2023-01-23T18:08:39;4.40;99.90
354;DHT22;165;53.592;10.044;2023-01-23T18:11:05;4.50;99.90
354;DHT22;165;53.592;10.044;2023-01-23T18:13:58;4.40;99.90
354;DHT22;165;53.592;10.044;2023-01-23T18:16:39;4.40;99.90
354;DHT22;165;53.592;10.044;2023-01-23T18:19:17;4.40;99.90
354;DHT22;165;53.592;10.044;2023-01-23T18:21:52;4.50;99.90
354;DHT22;165;53.592;10.044;2023-01-23T18:32:54;4.20;99.90
354;DHT22;165;53.592;10.044;2023-01-23T18:38:35;4.30;99.90
354;DHT22;165;53.592;10.044;2023-01-23T18:41:18;4.40;99.90
354;DHT22;165;53.592;10.044;2023-01-23T18:44:06;4.40;99.90
354;DHT22;165;53.592;10.044;2023-01-23T18:46:35;4.40;99.90
354;DHT22;165;53.592;10.044;2023-01-23T18:49:01;4.40;99.90
354;DHT22;165;53.592;10.044;2023-01-23T18:57:11;4.40;99.90
354;DHT22;165;53.592;10.044;2023-01-23T19:00:02;4.40;99.90
354;DHT22;165;53.592;10.044;2023-01-23T19:05:19;4.30;99.90
354;DHT22;165;53.592;10.044;2023-01-23T19:07:46;4.20;99.90
354;DHT22;165;53.592;10.044;2023-01-23T19:10:17;4.20;99.90
354;DHT22;165;53.592;10.044;2023-01-23T19:21:38;4.20;99.90
354;DHT22;165;53.592;10.044;2023-01-23T19:24:08;4.30;99.90
354;DHT22;165;53.592;10.044;2023-01-23T19:26:36;4.20;99.90
354;DHT22;165;53.592;10.044;2023-01-23T19:29:04;4.30;99.90
354;DHT22;165;53.592;10.044;2023-01-23T19:31:32;4.20;99.90
354;DHT22;165;53.592;10.044;2023-01-23T19:33:58;4.20;99.90
354;DHT22;165;53.592;10.044;2023-01-23T19:36:24;4.30;99.90
354;DHT22;165;53.592;10.044;2023-01-23T19:38:50;4.30;99.90
354;DHT22;165;53.592;10.044;2023-01-23T19:41:23;4.20;99.90
354;DHT22;165;53.592;10.044;2023-01-23T19:43:52;4.20;99.90
354;DHT22;165;53.592;10.044;2023-01-23T19:46:18;4.20;99.90
354;DHT22;165;53.592;10.044;2023-01-23T19:48:44;4.20;99.90
354;DHT22;165;53.592;10.044;2023-01-23T19:51:12;4.20;99.90
354;DHT22;165;53.592;10.044;2023-01-23T19:53:38;4.20;99.90
354;DHT22;165;53.592;10.044;2023-01-23T19:56:04;4.10;99.90
354;DHT22;165;53.592;10.044;2023-01-23T19:58:30;4.10;99.90
354;DHT22;165;53.592;10.044;2023-01-23T20:00:55;4.10;99.90
354;DHT22;165;53.592;10.044;2023-01-23T20:03:21;4.20;99.90
354;DHT22;165;53.592;10.044;2023-01-23T20:05:46;4.20;99.90
354;DHT22;165;53.592;10.044;2023-01-23T20:08:11;4.20;99.90
354;DHT22;165;53.592;10.044;2023-01-23T20:10:37;4.20;99.90
354;DHT22;165;53.592;10.044;2023-01-23T20:13:02;4.20;99.90
354;DHT22;165;53.592;10.044;2023-01-23T20:15:28;4.20;99.90
354;DHT22;165;53.592;10.044;2023-01-23T20:17:53;4.20;99.90
354;DHT22;165;53.592;10.044;2023-01-23T20:20:19;4.20;99.90
354;DHT22;165;53.592;10.044;2023-01-23T20:22:45;4.20;99.90
354;DHT22;165;53.592;10.044;2023-01-23T20:25:12;4.30;99.90
354;DHT22;165;53.592;10.044;2023-01-23T20:27:39;4.30;99.90
354;DHT22;165;53.592;10.044;2023-01-23T20:30:08;4.30;99.90
354;DHT22;165;53.592;10.044;2023-01-23T20:32:35;4.30;99.90
354;DHT22;165;53.592;10.044;2023-01-23T20:35:00;4.30;99.90
354;DHT22;165;53.592;10.044;2023-01-23T20:37:27;4.30;99.90
354;DHT22;165;53.592;10.044;2023-01-23T20:39:52;4.30;99.90
354;DHT22;165;53.592;10.044;2023-01-23T20:42:18;4.20;99.90
354;DHT22;165;53.592;10.044;2023-01-23T20:44:43;4.30;99.90
354;DHT22;165;53.592;10.044;2023-01-23T20:47:09;4.10;99.90
354;DHT22;165;53.592;10.044;2023-01-23T20:49:35;4.10;99.90
354;DHT22;165;53.592;10.044;2023-01-23T20:52:00;4.10;99.90
354;DHT22;165;53.592;10.044;2023-01-23T20:54:26;4.20;99.90
354;DHT22;165;53.592;10.044;2023-01-23T20:56:51;4.20;99.90
354;DHT22;165;53.592;10.044;2023-01-23T20:59:16;4.30;99.90
354;DHT22;165;53.592;10.044;2023-01-23T21:01:42;4.30;99.90
354;DHT22;165;53.592;10.044;2023-01-23T21:04:08;4.30;99.90
354;DHT22;165;53.592;10.044;2023-01-23T21:06:33;4.20;99.90
354;DHT22;165;53.592;10.044;2023-01-23T21:08:59;4.20;99.90
354;DHT22;165;53.592;10.044;2023-01-23T21:11:24;4.20;99.90
354;DHT22;165;53.592;10.044;2023-01-23T21:13:50;4.10;99.90
354;DHT22;165;53.592;10.044;2023-01-23T21:16:16;4.20;99.90
354;DHT22;165;53.592;10.044;2023-01-23T21:18:45;4.20;99.90
354;DHT22;165;53.592;10.044;2023-01-23T21:21:13;4.20;99.90
354;DHT22;165;53.592;10.044;2023-01-23T21:23:39;4.20;99.90
354;DHT22;165;53.592;10.044;2023-01-23T21:26:05;4.20;99.90
354;DHT22;165;53.592;10.044;2023-01-23T21:28:32;4.20;99.90
354;DHT22;165;53.592;10.044;2023-01-23T21:30:58;4.10;99.90
354;DHT22;165;53.592;10.044;2023-01-23T21:33:24;4.10;99.90
354;DHT22;165;53.592;10.044;2023-01-23T21:35:51;4.10;99.90
354;DHT22;165;53.592;10.044;2023-01-23T21:38:17;4.10;99.90
354;DHT22;165;53.592;10.044;2023-01-23T21:40:43;4.10;99.90
354;DHT22;165;53.592;10.044;2023-01-23T21:43:08;4.10;99.90
354;DHT22;165;53.592;10.044;2023-01-23T21:45:34;4.10;99.90
354;DHT22;165;53.592;10.044;2023-01-23T21:47:59;4.00;99.90
354;DHT22;165;53.592;10.044;2023-01-23T21:50:25;4.00;99.90
354;DHT22;165;53.592;10.044;2023-01-23T21:52:50;4.10;99.90
354;DHT22;165;53.592;10.044;2023-01-23T21:55:16;4.10;99.90
354;DHT22;165;53.592;10.044;2023-01-23T21:57:41;4.00;99.90
354;DHT22;165;53.592;10.044;2023-01-23T22:00:07;4.10;99.90
354;DHT22;165;53.592;10.044;2023-01-23T22:02:33;4.10;99.90
354;DHT22;165;53.592;10.044;2023-01-23T22:04:58;4.20;99.90
354;DHT22;165;53.592;10.044;2023-01-23T22:07:23;4.20;99.90
354;DHT22;165;53.592;10.044;2023-01-23T22:09:52;4.20;99.90
354;DHT22;165;53.592;10.044;2023-01-23T22:12:17;4.20;99.90
354;DHT22;165;53.592;10.044;2023-01-23T22:14:43;4.20;99.90
354;DHT22;165;53.592;10.044;2023-01-23T22:17:08;4.20;99.90
354;DHT22;165;53.592;10.044;2023-01-23T22:19:34;4.10;99.90
354;DHT22;165;53.592;10.044;2023-01-23T22:21:59;4.10;99.90
354;DHT22;165;53.592;10.044;2023-01-23T22:24:25;4.10;99.90
354;DHT22;165;53.592;10.044;2023-01-23T22:26:50;4.20;99.90
354;DHT22;165;53.592;10.044;2023-01-23T22:29:16;4.30;99.90
354;DHT22;165;53.592;10.044;2023-01-23T22:31:42;4.20;99.90
354;DHT22;165;53.592;10.044;2023-01-23T22:34:07;4.20;99.90
354;DHT22;165;53.592;10.044;2023-01-23T22:36:33;4.10;99.90
354;DHT22;165;53.592;10.044;2023-01-23T22:38:58;4.20;99.90
354;DHT22;165;53.592;10.044;2023-01-23T22:41:25;4.20;99.90
354;DHT22;165;53.592;10.044;2023-01-23T22:43:54;4.20;99.90
354;DHT22;165;53.592;10.044;2023-01-23T22:46:21;4.20;99.90
354;DHT22;165;53.592;10.044;2023-01-23T22:48:47;4.20;99.90
354;DHT22;165;53.592;10.044;2023-01-23T22:51:18;4.20;99.90
354;DHT22;165;53.592;10.044;2023-01-23T22:53:44;4.20;99.90
354;DHT22;165;53.592;10.044;2023-01-23T22:56:10;4.20;99.90
354;DHT22;165;53.592;10.044;2023-01-23T22:58:36;4.10;99.90
354;DHT22;165;53.592;10.044;2023-01-23T23:01:02;4.10;99.90
354;DHT22;165;53.592;10.044;2023-01-23T23:03:30;4.10;99.90
354;DHT22;165;53.592;10.044;2023-01-23T23:06:07;4.10;99.90
354;DHT22;165;53.592;10.044;2023-01-23T23:08:33;4.10;99.90
354;DHT22;165;53.592;10.044;2023-01-23T23:11:11;4.10;99.90
354;DHT22;165;53.592;10.044;2023-01-23T23:13:38;4.00;99.90
354;DHT22;165;53.592;10.044;2023-01-23T23:16:07;3.90;99.90
354;DHT22;165;53.592;10.044;2023-01-23T23:18:33;3.90;99.90
354;DHT22;165;53.592;10.044;2023-01-23T23:21:00;3.90;99.90
354;DHT22;165;53.592;10.044;2023-01-23T23:23:26;3.90;99.90
354;DHT22;165;53.592;10.044;2023-01-23T23:25:53;3.90;99.90
354;DHT22;165;53.592;10.044;2023-01-23T23:28:19;3.90;99.90
354;DHT22;165;53.592;10.044;2023-01-23T23:30:45;4.00;99.90
354;DHT22;165;53.592;10.044;2023-01-23T23:33:10;4.10;99.90
354;DHT22;165;53.592;10.044;2023-01-23T23:35:36;4.10;99.90
354;DHT22;165;53.592;10.044;2023-01-23T23:38:02;4.00;99.90
354;DHT22;165;53.592;10.044;2023-01-23T23:40:27;4.00;99.90
354;DHT22;165;53.592;10.044;2023-01-23T23:42:53;3.90;99.90
354;DHT22;165;53.592;10.044;2023-01-23T23:45:18;3.90;99.90
354;DHT22;165;53.592;10.044;2023-01-23T23:47:44;3.90;99.90
354;DHT22;165;53.592;10.044;2023-01-23T23:50:10;3.90;99.90
354;DHT22;165;53.592;10.044;2023-01-23T23:52:35;3.90;99.90
354;DHT22;165;53.592;10.044;2023-01-23T23:55:01;3.90;99.90